Tiempo atmosférico en la estación meteorológica de Sopeira, Huesca (760 m.)



Fecha
DESCASC
Temp. máxima en grados centígrados (hora)
DESCASC
Temp. mínima en grados centígrados (hora)
DESCASC
Temp. media en grados centígrados
DESCASC
Racha de viento máxima en m/sg (hora)
DESCASC
Velocidad máxima media en intervalos de 10 minutos(hora)
DESCASC
Precipitaciones diarias en mm
DESCASC
Precipitaciones de 00:00 a 06:00 en mm
DESCASC
Precipitaciones de 06:00 a 12:00 en mm
DESCASC
Precipitaciones de 12:00 a 18:00 en mm
DESCASC
Precipitaciones de 18:00 a 24:00 en mm
DESCASC
11-08-2020 32.9 (13:50) 16.5 (07:30) 24.7 14.44 (05:30) 10.83 (05:40) 0 0 0 0 0
10-08-2020 28.3 (17:40) 16.5 (07:30) 22.4 14.72 (08:20) 10.83 (09:10) 0.6 0 0.4 0.2 0
09-08-2020 35.4 (14:50) 18.5 (07:50) 27 15 (22:00) 11.39 (07:30) 0.8 0 0 0 0.8
08-08-2020 36.8 (16:20) 18.9 (08:00) 27.8 15.28 (08:10) 11.39 (06:00) 0 0 0 0 0
07-08-2020 36.2 (17:00) 17.5 (00:00) 26.9 13.61 (23:30) 9.44 (07:10) 0 0 0 0 0
06-08-2020 33.9 (16:20) 14.6 (00:00) 24.3 11.67 (07:20) 8.33 (06:50) 0 0 0 0 0
05-08-2020 31.3 (16:20) 13.3 (00:00) 22.3 12.78 (04:10) 9.17 (04:40) 0 0 0 0 0
04-08-2020 28.9 (15:40) 14.6 (08:10) 21.8 10.83 (03:30) 7.5 (06:10) 0 0 0 0 0
03-08-2020 27.7 (15:10) 15.8 (08:30) 21.8 9.72 (23:20) 6.11 (15:30) 0 0 0 0 0
02-08-2020 31.2 (14:40) 17.2 (00:00) 24.2 11.94 (04:10) 8.61 (04:00) 0 0 0 0 0
01-08-2020 35.3 (16:00) 18.1 (00:00) 26.7 15.28 (06:00) 11.67 (04:40) 0 0 0 0 0
31-07-2020 36.4 (16:10) 19 (08:00) 27.7 14.17 (08:30) 10.28 (08:10) 0 0 0 0 0
30-07-2020 35.4 (15:20) 19.4 (00:00) 27.4 12.78 (05:40) 9.72 (05:30) 0 0 0 0 0
29-07-2020 33.7 (15:30) 17.3 (00:00) 25.5 13.33 (05:50) 10.28 (07:40) 0 0 0 0 0
28-07-2020 34.3 (16:30) 19.9 (00:00) 27.1 13.61 (07:30) 9.17 (06:40) 0 0 0 0 0
27-07-2020 35.2 (17:20) 18.3 (00:00) 26.8 13.06 (08:30) 9.44 (03:50) 0 0 0 0 0
26-07-2020 32.1 (16:50) 16.1 (00:00) 24.1 14.17 (04:40) 9.72 (05:20) 0 0 0 0 0
25-07-2020 29.9 (17:00) 15.5 (00:00) 22.7 11.11 (07:50) 8.06 (06:00) 0 0 0 0 0
24-07-2020 29.6 (16:30) 17.8 (00:00) 23.7 11.11 (05:50) 7.78 (03:20) 4.2 3.6 0.6 0 0
23-07-2020 32.6 (16:20) 17.4 (00:00) 25 14.17 (05:10) 9.17 (04:30) 0 0 0 0 0
22-07-2020 32.2 (18:00) 19.3 (00:00) 25.8 11.39 (05:10) 8.61 (05:10) 0 0 0 0 0
21-07-2020 32.8 (17:40) 15.5 (00:00) 24.1 14.17 (06:40) 10.56 (07:40) 0 0 0 0 0
20-07-2020 30.8 (15:00) 17.6 (00:00) 24.2 14.44 (19:20) 9.72 (06:00) 0 0 0 0 0
19-07-2020 31.3 (16:10) 15.1 (00:00) 23.2 11.11 (06:50) 8.33 (06:40) 0 0 0 0 0
18-07-2020 29.7 (15:50) 13.4 (00:00) 21.6 12.22 (03:40) 9.17 (03:30) 0 0 0 0 0
17-07-2020 27.5 (17:10) 14.2 (00:00) 20.8 11.39 (06:40) 7.5 (05:30) 0 0 0 0 0
16-07-2020 27.1 (17:10) 13 (00:00) 20.1 11.67 (02:20) 8.61 (02:10) 0 0 0 0 0
15-07-2020 23.8 (14:20) 14.1 (00:00) 18.9 11.67 (23:30) 7.22 (02:00) 0 0 0 0 0

Gráficas

Temp. máximas Temp. mínimas Temp. medias Precipitaciones Rachas de viento máximas Velocidades máximas media en intervalos de 10 minutos

Datos horarios

Fecha y hora oficial Temperatura (ºC) Velocidad del viento (km/h) Dirección del viento Racha (km/h) Dirección de racha Precipitación (mm) Presión (hPa) Tendencia (hPa) Humedad (%)
2020-08-13 23:00:00 22.3 17 Noroeste 27 Noroeste 0 -- -- 52
2020-08-13 22:00:00 24 10 Noroeste 15 Noroeste 0 -- -- 46
2020-08-13 21:00:00 26.1 5 Sudoeste 12 Sur 0 -- -- 39
2020-08-13 20:00:00 27 4 Este 17 Sur 0 -- -- 37
2020-08-13 19:00:00 28.7 8 Sur 22 Sudoeste 0 -- -- 31
2020-08-13 18:00:00 29.5 8 Sudoeste 29 Sur 0 -- -- 28
2020-08-13 17:00:00 29.8 8 Sudeste 31 Sur 0 -- -- 29
2020-08-13 16:00:00 30.1 9 Sur 28 Sur 0 -- -- 32
2020-08-13 15:00:00 29.3 10 Sur 38 Sudeste 0 -- -- 33
2020-08-13 14:00:00 28.4 6 Sudeste 26 Sudeste 0 -- -- 35
2020-08-13 13:00:00 27.7 9 Oeste 23 Sudoeste 0 -- -- 37
2020-08-13 12:00:00 29.1 10 Nordeste 20 Nordeste 0 -- -- 40
2020-08-13 11:00:00 22.7 9 Noroeste 28 Noroeste 0 -- -- 53
2020-08-13 10:00:00 19.9 22 Noroeste 37 Noroeste 0 -- -- 61
2020-08-13 09:00:00 17.3 28 Noroeste 39 Noroeste 0 -- -- 70
2020-08-13 08:00:00 15.8 29 Noroeste 39 Noroeste 0 -- -- 76
2020-08-13 07:00:00 16.2 28 Noroeste 41 Noroeste 0 -- -- 74
2020-08-13 06:00:00 16.7 30 Noroeste 39 Noroeste 0 -- -- 72
2020-08-13 05:00:00 17.5 28 Noroeste 38 Noroeste 0 -- -- 68
2020-08-13 04:00:00 18.2 27 Noroeste 37 Noroeste 0 -- -- 66
2020-08-13 03:00:00 19.6 23 Noroeste 34 Norte 0 -- -- 59
2020-08-13 02:00:00 20.6 20 Noroeste 32 Noroeste 0 -- -- 56
2020-08-13 01:00:00 21.7 20 Noroeste 28 Noroeste 0 -- -- 52
2020-08-13 00:00:00 22.6 11 Noroeste 18 Oeste 0 -- -- 54
2020-08-12 23:00:00 23.7 2 Este 9 Sur 0 -- -- 51
2020-08-12 22:00:00 24.8 5 Sudoeste 15 Sur 0 -- -- 46
2020-08-12 21:00:00 25.8 12 Sur 19 Sudoeste 0 -- -- 36
2020-08-12 20:00:00 26.8 5 Norte 28 Sur 0 -- -- 30
2020-08-12 19:00:00 27.7 7 Sur 26 Sur 0 -- -- 35
2020-08-12 18:00:00 27.9 13 Sur 26 Sur 0 -- -- 37
2020-08-12 17:00:00 28.2 8 Sudoeste 36 Sudoeste 0 -- -- 42
2020-08-12 16:00:00 26.7 14 Nordeste 46 Sur 0 -- -- 44
2020-08-12 15:00:00 29.1 13 Sur 26 Sur 0 -- -- 39
2020-08-12 14:00:00 27.8 4 Sudoeste 22 Sur 0 -- -- 43
2020-08-12 13:00:00 27.7 9 Sudeste 20 Sur 0 -- -- 43
2020-08-12 12:00:00 25.9 5 Sur 19 Noroeste 0 -- -- 50
2020-08-12 11:00:00 21.8 14 Noroeste 23 Noroeste 0 -- -- 60
2020-08-12 10:00:00 20.7 14 Noroeste 26 Noroeste 0 -- -- 61
2020-08-12 09:00:00 19.9 19 Noroeste 24 Noroeste 0 -- -- 68
2020-08-12 08:00:00 20.1 8 Noroeste 17 Noroeste 0 -- -- 65
2020-08-12 07:00:00 19.9 4 Oeste 19 Noroeste 0 -- -- 67
2020-08-12 06:00:00 20 13 Noroeste 35 Noroeste 0 -- -- 67
2020-08-12 05:00:00 20.2 28 Noroeste 37 Noroeste 0 -- -- 68
2020-08-12 04:00:00 20.5 22 Noroeste 29 Noroeste 0 -- -- 67
2020-08-12 03:00:00 21 23 Noroeste 28 Noroeste 0 -- -- 64
2020-08-12 02:00:00 21.7 10 Noroeste 26 Noroeste 0 -- -- 59
2020-08-12 01:00:00 22.4 11 Noroeste 27 Noroeste 0 -- -- 57
2020-08-12 00:00:00 23 14 Noroeste 22 Noroeste 0 -- -- 55
2020-08-11 23:00:00 23.9 2 Oeste 18 Noroeste 0 -- -- 51
2020-08-11 22:00:00 25.2 10 Noroeste 28 Noroeste 0 -- -- 46
2020-08-11 21:00:00 26.8 17 Noroeste 31 Noroeste 0 -- -- 39
2020-08-11 20:00:00 27.7 15 Norte 27 Noroeste 0 -- -- 36
2020-08-11 19:00:00 29 3 Norte 12 Sur 0 -- -- 31
2020-08-11 18:00:00 29.8 6 Nordeste 19 Sudoeste 0 -- -- 31
2020-08-11 17:00:00 31.4 13 Sur 27 Sur 0 -- -- 27
2020-08-11 16:00:00 31 10 Sur 22 Sur 0 -- -- 26
2020-08-11 15:00:00 31 16 Sur 27 Sur 0 -- -- 27
2020-08-11 14:00:00 32.6 10 Sudoeste 21 Sudoeste 0 -- -- 27
2020-08-11 13:00:00 31.3 5 Sudeste 17 Noroeste 0 -- -- 32
2020-08-11 12:00:00 26.9 14 Noroeste 33 Noroeste 0 -- -- 38
2020-08-11 11:00:00 22.9 26 Norte 49 Noroeste 0 -- -- 49
2020-08-11 10:00:00 19 39 Noroeste 49 Noroeste 0 -- -- 62
2020-08-11 09:00:00 17.9 34 Noroeste 51 Noroeste 0 -- -- 65
2020-08-11 08:00:00 16.7 33 Noroeste 47 Noroeste 0 -- -- 72
2020-08-11 07:00:00 16.8 32 Noroeste 48 Noroeste 0 -- -- 72
2020-08-11 06:00:00 17.3 34 Noroeste 52 Noroeste 0 -- -- 69
2020-08-11 05:00:00 17.2 39 Noroeste 49 Noroeste 0 -- -- 72
2020-08-11 04:00:00 17.9 27 Noroeste 48 Noroeste 0 -- -- 70
2020-08-11 03:00:00 18.7 34 Noroeste 47 Noroeste 0 -- -- 67
2020-08-11 02:00:00 18.8 32 Noroeste 47 Noroeste 0 -- -- 69
2020-08-11 01:00:00 19.6 32 Noroeste 43 Noroeste 0 -- -- 67
2020-08-11 00:00:00 20.3 32 Noroeste 41 Noroeste 0 -- -- 66
2020-08-10 23:00:00 21.5 27 Noroeste 37 Noroeste 0 -- -- 63
2020-08-10 22:00:00 23.4 22 Noroeste 35 Noroeste 0 -- -- 56
2020-08-10 21:00:00 25 21 Noroeste 28 Noroeste 0 -- -- 47
2020-08-10 20:00:00 27.1 10 Noroeste 25 Noroeste 0 -- -- 39
2020-08-10 19:00:00 27.4 12 Noroeste 32 Noroeste 0 -- -- 37
2020-08-10 18:00:00 27.6 14 Norte 26 Noroeste 0 -- -- 38
2020-08-10 17:00:00 27.8 8 Sur 21 Sudoeste 0 -- -- 39
2020-08-10 16:00:00 27.6 3 Oeste 22 Sur 0 -- -- 43
2020-08-10 15:00:00 28.1 17 Sur 28 Sur 0 -- -- 42
2020-08-10 14:00:00 25.4 19 Noroeste 30 Noroeste 0.2 -- -- 61
2020-08-10 13:00:00 21.7 22 Noroeste 41 Noroeste 0 -- -- 72
2020-08-10 12:00:00 21 32 Noroeste 44 Noroeste 0.4 -- -- 72
2020-08-10 11:00:00 21.8 36 Noroeste 47 Noroeste 0 -- -- 60
2020-08-10 10:00:00 20.8 30 Norte 51 Noroeste 0 -- -- 62
2020-08-10 09:00:00 17.6 38 Noroeste 53 Noroeste 0 -- -- 77
2020-08-10 08:00:00 16.6 35 Noroeste 50 Noroeste 0 -- -- 82
2020-08-10 07:00:00 16.7 32 Noroeste 48 Noroeste 0 -- -- 83
2020-08-10 06:00:00 17.5 30 Noroeste 48 Noroeste 0 -- -- 81
2020-08-10 05:00:00 17.5 29 Noroeste 47 Noroeste 0 -- -- 83
2020-08-10 04:00:00 18.5 30 Noroeste 45 Noroeste 0 -- -- 80
2020-08-10 03:00:00 19 27 Noroeste 44 Noroeste 0 -- -- 78
2020-08-10 02:00:00 19.7 29 Norte 46 Noroeste 0 -- -- 76
2020-08-10 01:00:00 20.1 32 Norte 48 Noroeste 0 -- -- 75
2020-08-10 00:00:00 20 31 Noroeste 46 Noroeste 0 -- -- 77
2020-08-09 23:00:00 20.8 27 Norte 43 Noroeste 0 -- -- 72
2020-08-09 22:00:00 21.1 28 Noroeste 54 Noroeste 0.8 -- -- 70
2020-08-09 21:00:00 24.7 27 Norte 39 Noroeste 0 -- -- 50
2020-08-09 20:00:00 25.8 18 Noroeste 39 Noroeste 0 -- -- 43
2020-08-09 19:00:00 26.3 17 Norte 36 Noroeste 0 -- -- 45
2020-08-09 18:00:00 25.7 20 Noroeste 41 Noroeste 0 -- -- 48
2020-08-09 17:00:00 24.6 24 Noroeste 51 Noroeste 0 -- -- 57
2020-08-09 16:00:00 27.2 27 Noroeste 45 Noroeste 0 -- -- 49
2020-08-09 15:00:00 34.9 13 Sur 26 Sur 0 -- -- 28
2020-08-09 14:00:00 33.9 10 Sudoeste 23 Sur 0 -- -- 32
2020-08-09 13:00:00 32.8 9 Sur 17 Sur 0 -- -- 35
2020-08-09 12:00:00 28.3 8 Noroeste 28 Noroeste 0 -- -- 40
2020-08-09 11:00:00 25.2 21 Noroeste 35 Noroeste 0 -- -- 45
2020-08-09 10:00:00 22.3 27 Noroeste 41 Noroeste 0 -- -- 53
2020-08-09 09:00:00 20.3 24 Noroeste 46 Noroeste 0 -- -- 60
2020-08-09 08:00:00 19 27 Noroeste 53 Noroeste 0 -- -- 65
2020-08-09 07:00:00 18.8 36 Noroeste 48 Noroeste 0 -- -- 68
2020-08-09 06:00:00 19.4 38 Noroeste 48 Noroeste 0 -- -- 66
2020-08-09 05:00:00 20.2 29 Noroeste 45 Noroeste 0 -- -- 64
2020-08-09 04:00:00 21.3 35 Noroeste 49 Noroeste 0 -- -- 60
2020-08-09 03:00:00 21.3 32 Noroeste 43 Noroeste 0 -- -- 64
2020-08-09 02:00:00 22 29 Noroeste 41 Noroeste 0 -- -- 61
2020-08-09 01:00:00 22 31 Noroeste 51 Noroeste 0 -- -- 63
2020-08-09 00:00:00 22.4 30 Noroeste 44 Noroeste 0 -- -- 61
2020-08-08 23:00:00 23.6 23 Noroeste 53 Noroeste 0 -- -- 55
2020-08-08 22:00:00 25.4 27 Norte 44 Noroeste 0 -- -- 52
2020-08-08 21:00:00 26.1 25 Norte 41 Noroeste 0 -- -- 56
2020-08-08 20:00:00 26.7 27 Noroeste 44 Noroeste 0 -- -- 53
2020-08-08 19:00:00 28.4 26 Norte 44 Noroeste 0 -- -- 48
2020-08-08 18:00:00 36.3 5 Sudoeste 25 Sudoeste 0 -- -- 28
2020-08-08 17:00:00 36.8 8 Este 20 Sudoeste 0 -- -- 27
2020-08-08 16:00:00 36.2 8 Sudeste 25 Sur 0 -- -- 28
2020-08-08 15:00:00 35.4 13 Sur 24 Sur 0 -- -- 27
2020-08-08 14:00:00 35 10 Sur 20 Sur 0 -- -- 28
2020-08-08 13:00:00 33.7 10 Sur 17 Sudoeste 0 -- -- 30
2020-08-08 12:00:00 32.8 6 Sudeste 12 Este 0 -- -- 34
2020-08-08 11:00:00 25.8 6 Noroeste 22 Noroeste 0 -- -- 48
2020-08-08 10:00:00 22.4 15 Noroeste 39 Noroeste 0 -- -- 58
2020-08-08 09:00:00 20.4 28 Noroeste 55 Noroeste 0 -- -- 65
2020-08-08 08:00:00 18.9 38 Noroeste 54 Noroeste 0 -- -- 71
2020-08-08 07:00:00 19.4 41 Noroeste 53 Noroeste 0 -- -- 71
2020-08-08 06:00:00 20.1 41 Noroeste 53 Noroeste 0 -- -- 69
2020-08-08 05:00:00 21.2 32 Noroeste 48 Noroeste 0 -- -- 63
2020-08-08 04:00:00 22.3 30 Noroeste 46 Noroeste 0 -- -- 60
2020-08-08 03:00:00 24.8 25 Norte 46 Noroeste 0 -- -- 48
2020-08-08 02:00:00 26.8 14 Norte 39 Noroeste 0 -- -- 39
2020-08-08 01:00:00 26.8 18 Noroeste 29 Noroeste 0 -- -- 39
2020-08-08 00:00:00 28.8 12 Norte 49 Noroeste 0 -- -- 34
2020-08-07 23:00:00 28.9 22 Norte 43 Noroeste 0 -- -- 34
2020-08-07 22:00:00 28.9 12 Noroeste 21 Oeste 0 -- -- 40
2020-08-07 21:00:00 30.8 3 Sur 17 Sur 0 -- -- 33
2020-08-07 20:00:00 32.5 2 Sudoeste 17 Noroeste 0 -- -- 30
2020-08-07 19:00:00 33.4 12 Noroeste 27 Noroeste 0 -- -- 26
2020-08-07 18:00:00 35.3 6 Sur 22 Sur 0 -- -- 26
2020-08-07 17:00:00 36.2 12 Sur 23 Sudoeste 0 -- -- 27
2020-08-07 16:00:00 35.7 11 Sur 23 Sur 0 -- -- 29
2020-08-07 15:00:00 35 7 Este 20 Sudoeste 0 -- -- 29
2020-08-07 14:00:00 33.6 11 Sur 21 Sur 0 -- -- 31
2020-08-07 13:00:00 31.8 10 Sur 19 Sudoeste 0 -- -- 36
2020-08-07 12:00:00 30.5 7 Sur 13 Noroeste 0 -- -- 38
2020-08-07 11:00:00 24.4 6 Norte 28 Noroeste 0 -- -- 49
2020-08-07 10:00:00 19.7 20 Noroeste 41 Noroeste 0 -- -- 65
2020-08-07 09:00:00 18.6 33 Noroeste 48 Noroeste 0 -- -- 67
2020-08-07 08:00:00 18 31 Noroeste 45 Noroeste 0 -- -- 69
2020-08-07 07:00:00 17.8 32 Noroeste 42 Noroeste 0 -- -- 70
2020-08-07 06:00:00 17.8 30 Noroeste 41 Noroeste 0 -- -- 72
2020-08-07 05:00:00 18.7 27 Noroeste 39 Noroeste 0 -- -- 67
2020-08-07 04:00:00 19.6 26 Noroeste 42 Noroeste 0 -- -- 64
2020-08-07 03:00:00 19.9 30 Noroeste 40 Noroeste 0 -- -- 64
2020-08-07 02:00:00 20.7 27 Noroeste 39 Noroeste 0 -- -- 63
2020-08-07 01:00:00 22 21 Noroeste 34 Noroeste 0 -- -- 58
2020-08-07 00:00:00 23.4 20 Noroeste 31 Noroeste 0 -- -- 53
2020-08-06 23:00:00 24.8 15 Noroeste 31 Noroeste 0 -- -- 51
2020-08-06 22:00:00 26.8 13 Noroeste 17 Noroeste 0 -- -- 45
2020-08-06 21:00:00 29 5 Este 12 Oeste 0 -- -- 39
2020-08-06 20:00:00 31.1 8 Sudoeste 14 Sur 0 -- -- 34
2020-08-06 19:00:00 32.9 10 Sur 22 Sur 0 -- -- 32
2020-08-06 18:00:00 33.7 10 Sur 27 Sur 0 -- -- 28
2020-08-06 17:00:00 33.9 9 Sur 19 Sudoeste 0 -- -- 27
2020-08-06 16:00:00 33.5 8 Este 20 Sur 0 -- -- 31
2020-08-06 15:00:00 32.2 8 Sur 18 Sudoeste 0 -- -- 29
2020-08-06 14:00:00 31.1 8 Sudoeste 19 Sudoeste 0 -- -- 31
2020-08-06 13:00:00 29.6 7 Sudoeste 16 Sudoeste 0 -- -- 32
2020-08-06 12:00:00 28.8 8 Sur 13 Sudoeste 0 -- -- 38
2020-08-06 11:00:00 22.9 12 Noroeste 30 Noroeste 0 -- -- 45
2020-08-06 10:00:00 19.3 17 Noroeste 40 Noroeste 0 -- -- 57
2020-08-06 09:00:00 16.7 23 Noroeste 39 Noroeste 0 -- -- 65
2020-08-06 08:00:00 14.6 29 Noroeste 42 Noroeste 0 -- -- 73
2020-08-06 07:00:00 15.2 28 Noroeste 39 Noroeste 0 -- -- 70
2020-08-06 06:00:00 15.5 27 Noroeste 38 Noroeste 0 -- -- 70
2020-08-06 05:00:00 16.1 26 Noroeste 42 Noroeste 0 -- -- 70
2020-08-06 04:00:00 16.9 20 Noroeste 37 Noroeste 0 -- -- 66
2020-08-06 03:00:00 17.9 25 Noroeste 41 Noroeste 0 -- -- 61
2020-08-06 02:00:00 18.9 28 Noroeste 37 Noroeste 0 -- -- 57
2020-08-06 01:00:00 20.2 23 Noroeste 35 Oeste 0 -- -- 54
2020-08-06 00:00:00 21.3 19 Noroeste 30 Noroeste 0 -- -- 51
2020-08-05 23:00:00 22.9 17 Noroeste 24 Noroeste 0 -- -- 46
2020-08-05 22:00:00 24.8 8 Noroeste 13 Noroeste 0 -- -- 41
2020-08-05 21:00:00 26.7 4 Sudeste 10 Sur 0 -- -- 36
2020-08-05 20:00:00 28.2 4 Sur 19 Sur 0 -- -- 33
2020-08-05 19:00:00 30 10 Sur 21 Sudoeste 0 -- -- 32
2020-08-05 18:00:00 30.7 15 Sur 24 Sudoeste 0 -- -- 32
2020-08-05 17:00:00 31.2 12 Sur 22 Sur 0 -- -- 31
2020-08-05 16:00:00 30.7 9 Sudeste 21 Sur 0 -- -- 32
2020-08-05 15:00:00 29.7 10 Sudoeste 17 Sudoeste 0 -- -- 31
2020-08-05 14:00:00 29.3 10 Sur 20 Sur 0 -- -- 33
2020-08-05 13:00:00 28.1 10 Sur 17 Sur 0 -- -- 33
2020-08-05 12:00:00 26.5 7 Sudeste 13 Sudeste 0 -- -- 38
2020-08-05 11:00:00 23.8 6 Sudeste 22 Noroeste 0 -- -- 43
2020-08-05 10:00:00 17.9 14 Noroeste 35 Noroeste 0 -- -- 57
2020-08-05 09:00:00 15.2 24 Noroeste 36 Noroeste 0 -- -- 66
2020-08-05 08:00:00 13.4 26 Noroeste 40 Noroeste 0 -- -- 74
2020-08-05 07:00:00 13.8 25 Noroeste 41 Noroeste 0 -- -- 71
2020-08-05 06:00:00 14.3 25 Noroeste 39 Noroeste 0 -- -- 69
2020-08-05 05:00:00 15.1 28 Noroeste 46 Noroeste 0 -- -- 65
2020-08-05 04:00:00 15.8 29 Noroeste 40 Noroeste 0 -- -- 64
2020-08-05 03:00:00 16.7 31 Noroeste 39 Noroeste 0 -- -- 61
2020-08-05 02:00:00 17.6 29 Noroeste 38 Noroeste 0 -- -- 59
2020-08-05 01:00:00 19.1 24 Noroeste 37 Noroeste 0 -- -- 52
2020-08-05 00:00:00 20.3 24 Noroeste 31 Noroeste 0 -- -- 49
2020-08-04 23:00:00 21.7 16 Noroeste 23 Noroeste 0 -- -- 45
2020-08-04 22:00:00 22.6 2 Este 8 Sudeste 0 -- -- 40
2020-08-04 21:00:00 24.4 2 Sur 19 Sur 0 -- -- 37
2020-08-04 20:00:00 25.4 12 Sur 21 Sur 0 -- -- 35
2020-08-04 19:00:00 27.2 12 Sur 28 Sur 0 -- -- 33
2020-08-04 18:00:00 27.6 14 Sur 26 Sudoeste 0 -- -- 32
2020-08-04 17:00:00 28.6 11 Sur 26 Sur 0 -- -- 29
2020-08-04 16:00:00 28.6 10 Sudoeste 24 Sur 0 -- -- 28
2020-08-04 15:00:00 28.6 8 Sur 26 Sur 0 -- -- 25
2020-08-04 14:00:00 28.3 8 Sur 20 Sudoeste 0 -- -- 25
2020-08-04 13:00:00 27.6 9 Este 17 Sur 0 -- -- 27
2020-08-04 12:00:00 24.6 8 Sudoeste 14 Sur 0 -- -- 30
2020-08-04 11:00:00 23.4 7 Sur 14 Sur 0 -- -- 38
2020-08-04 10:00:00 20.8 5 Sur 24 Noroeste 0 -- -- 42
2020-08-04 09:00:00 16.7 15 Noroeste 32 Noroeste 0 -- -- 52
2020-08-04 08:00:00 14.8 20 Noroeste 35 Noroeste 0 -- -- 63
2020-08-04 07:00:00 14.7 25 Noroeste 36 Noroeste 0 -- -- 62
2020-08-04 06:00:00 15.1 23 Noroeste 37 Noroeste 0 -- -- 61
2020-08-04 05:00:00 15.6 24 Noroeste 35 Noroeste 0 -- -- 62
2020-08-04 04:00:00 16.7 23 Noroeste 39 Noroeste 0 -- -- 58
2020-08-04 03:00:00 17.6 22 Noroeste 33 Noroeste 0 -- -- 52
2020-08-04 02:00:00 18.9 18 Noroeste 33 Noroeste 0 -- -- 48
2020-08-04 01:00:00 20.1 18 Noroeste 35 Noroeste 0 -- -- 42
2020-08-04 00:00:00 20.6 13 Norte 35 Norte 0 -- -- 43
2020-08-03 23:00:00 21.2 18 Norte 32 Norte 0 -- -- 42
2020-08-03 22:00:00 22.3 16 Norte 27 Noroeste 0 -- -- 42
2020-08-03 21:00:00 24 12 Norte 21 Noroeste 0 -- -- 39
2020-08-03 20:00:00 25.1 6 Noroeste 21 Sudoeste 0 -- -- 37
2020-08-03 19:00:00 26.7 13 Sudoeste 23 Sudoeste 0 -- -- 35
2020-08-03 18:00:00 27 8 Sudoeste 19 Sudoeste 0 -- -- 35
2020-08-03 17:00:00 26.5 11 Sur 30 Sur 0 -- -- 39
2020-08-03 16:00:00 26 16 Sur 32 Sur 0 -- -- 40
2020-08-03 15:00:00 27.4 18 Sur 27 Sur 0 -- -- 41
2020-08-03 14:00:00 26.5 15 Sur 31 Sudoeste 0 -- -- 43
2020-08-03 13:00:00 25.6 13 Sur 28 Sur 0 -- -- 46
2020-08-03 12:00:00 25.1 11 Sur 19 Sur 0 -- -- 48
2020-08-03 11:00:00 24 8 Sur 14 Sur 0 -- -- 48
2020-08-03 10:00:00 21.6 6 Sur 9 Sur 0 -- -- 57
2020-08-03 09:00:00 18.6 5 Este 11 Sur 0 -- -- 65
2020-08-03 08:00:00 15.9 7 Sur 11 Sur 0 -- -- 70
2020-08-03 07:00:00 16.8 6 Sur 17 Sur 0 -- -- 67
2020-08-03 06:00:00 17.7 8 Sudoeste 15 Sur 0 -- -- 64
2020-08-03 05:00:00 18.9 8 Sur 14 Oeste 0 -- -- 64
2020-08-03 04:00:00 19.2 0 Calma 15 Sur 0 -- -- 65
2020-08-03 03:00:00 19.7 3 Sur 23 Noroeste 0 -- -- 64
2020-08-03 02:00:00 21.6 15 Noroeste 27 Noroeste 0 -- -- 57
2020-08-03 01:00:00 21.6 2 Noroeste 13 Noroeste 0 -- -- 60
2020-08-03 00:00:00 22.4 5 Sudoeste 13 Sudoeste 0 -- -- 56
2020-08-02 23:00:00 23.4 9 Sudoeste 15 Sudoeste 0 -- -- 53
2020-08-02 22:00:00 24.5 8 Sudoeste 13 Sudoeste 0 -- -- 49
2020-08-02 21:00:00 25.7 4 Este 18 Sur 0 -- -- 45
2020-08-02 20:00:00 26.7 5 Sudeste 19 Sudoeste 0 -- -- 44
2020-08-02 19:00:00 27.6 12 Sudeste 23 Sur 0 -- -- 42
2020-08-02 18:00:00 28.6 10 Sudeste 24 Sudoeste 0 -- -- 40
2020-08-02 17:00:00 28.6 6 Sur 34 Sur 0 -- -- 40
2020-08-02 16:00:00 30 18 Sur 39 Sur 0 -- -- 37
2020-08-02 15:00:00 30.7 18 Sur 30 Sur 0 -- -- 35
2020-08-02 14:00:00 30.5 12 Sur 31 Sur 0 -- -- 42
2020-08-02 13:00:00 29.5 15 Sur 25 Sur 0 -- -- 42
2020-08-02 12:00:00 28.3 11 Sur 17 Sur 0 -- -- 47
2020-08-02 11:00:00 26.7 9 Sur 13 Sur 0 -- -- 46
2020-08-02 10:00:00 22.5 5 Norte 26 Noroeste 0 -- -- 56
2020-08-02 09:00:00 18.6 17 Noroeste 37 Noroeste 0 -- -- 65
2020-08-02 08:00:00 17.2 20 Noroeste 36 Noroeste 0 -- -- 71
2020-08-02 07:00:00 17.7 26 Noroeste 42 Noroeste 0 -- -- 66
2020-08-02 06:00:00 18.4 25 Noroeste 41 Noroeste 0 -- -- 65
2020-08-02 05:00:00 19.2 26 Noroeste 43 Noroeste 0 -- -- 61
2020-08-02 04:00:00 19.9 31 Noroeste 42 Noroeste 0 -- -- 58
2020-08-02 03:00:00 21.4 27 Noroeste 39 Noroeste 0 -- -- 53
2020-08-02 02:00:00 22.1 25 Noroeste 36 Oeste 0 -- -- 50
2020-08-02 01:00:00 23.4 23 Noroeste 35 Noroeste 0 -- -- 49
2020-08-02 00:00:00 25 26 Noroeste 37 Noroeste 0 -- -- 44
2020-08-01 23:00:00 26.6 18 Noroeste 29 Noroeste 0 -- -- 40
2020-08-01 22:00:00 28.2 15 Noroeste 22 Noroeste 0 -- -- 42
2020-08-01 21:00:00 30.1 0 Calma 14 Nordeste 0 -- -- 36
2020-08-01 20:00:00 31.4 3 Sur 12 Sur 0 -- -- 33
2020-08-01 19:00:00 33.9 7 Sur 27 Sur 0 -- -- 25
2020-08-01 18:00:00 34.4 10 Sur 25 Sudoeste 0 -- -- 26
2020-08-01 17:00:00 34.1 13 Sur 30 Sur 0 -- -- 29
2020-08-01 16:00:00 35.3 13 Sur 34 Sur 0 -- -- 26
2020-08-01 15:00:00 35.1 12 Sur 26 Sur 0 -- -- 28
2020-08-01 14:00:00 34.5 11 Sur 24 Sudoeste 0 -- -- 31
2020-08-01 13:00:00 33.7 9 Sur 25 Sur 0 -- -- 32
2020-08-01 12:00:00 31 6 Este 23 Noroeste 0 -- -- 38
2020-08-01 11:00:00 25.8 12 Noroeste 36 Noroeste 0 -- -- 41
2020-08-01 10:00:00 22.4 30 Noroeste 43 Noroeste 0 -- -- 49
2020-08-01 09:00:00 20 32 Noroeste 47 Noroeste 0 -- -- 54
2020-08-01 08:00:00 18.5 37 Noroeste 52 Noroeste 0 -- -- 57
2020-08-01 07:00:00 18.2 40 Noroeste 54 Noroeste 0 -- -- 59
2020-08-01 06:00:00 19 40 Noroeste 55 Noroeste 0 -- -- 54
2020-08-01 05:00:00 19.4 40 Noroeste 53 Noroeste 0 -- -- 54
2020-08-01 04:00:00 19.9 38 Noroeste 50 Noroeste 0 -- -- 53
2020-08-01 03:00:00 20.8 37 Noroeste 51 Noroeste 0 -- -- 50
2020-08-01 02:00:00 22 36 Noroeste 48 Noroeste 0 -- -- 46
2020-08-01 01:00:00 22.6 34 Noroeste 44 Noroeste 0 -- -- 46
2020-08-01 00:00:00 24.7 30 Noroeste 40 Noroeste 0 -- -- 40
2020-07-31 23:00:00 26.2 23 Noroeste 33 Noroeste 0 -- -- 38
2020-07-31 22:00:00 28 19 Noroeste 26 Noroeste 0 -- -- 33
2020-07-31 21:00:00 30.5 7 Este 13 Sudoeste 0 -- -- 27
2020-07-31 20:00:00 33.2 6 Oeste 17 Sur 0 -- -- 22
2020-07-31 19:00:00 35.2 9 Sur 19 Sur 0 -- -- 22
2020-07-31 18:00:00 36 9 Sudoeste 23 Sur 0 -- -- 21
2020-07-31 17:00:00 36.2 12 Sur 32 Sudoeste 0 -- -- 23
2020-07-31 16:00:00 36.3 5 Sudeste 17 Sur 0 -- -- 26
2020-07-31 15:00:00 35.3 8 Sudoeste 24 Sur 0 -- -- 26
2020-07-31 14:00:00 35.1 4 Noroeste 16 Norte 0 -- -- 26
2020-07-31 13:00:00 33.8 6 Sur 20 Sudoeste 0 -- -- 27
2020-07-31 12:00:00 30.7 5 Este 24 Norte 0 -- -- 37
2020-07-31 11:00:00 25.8 16 Noroeste 33 Noroeste 0 -- -- 45
2020-07-31 10:00:00 22.4 24 Noroeste 38 Noroeste 0 -- -- 56
2020-07-31 09:00:00 20.5 33 Noroeste 51 Noroeste 0 -- -- 60
2020-07-31 08:00:00 19 36 Noroeste 48 Noroeste 0 -- -- 68
2020-07-31 07:00:00 19.3 36 Noroeste 47 Noroeste 0 -- -- 65
2020-07-31 06:00:00 20.1 30 Noroeste 44 Noroeste 0 -- -- 63
2020-07-31 05:00:00 21 33 Noroeste 49 Noroeste 0 -- -- 61
2020-07-31 04:00:00 21.8 31 Noroeste 49 Noroeste 0 -- -- 58
2020-07-31 03:00:00 23 29 Norte 44 Noroeste 0 -- -- 54
2020-07-31 02:00:00 23.4 23 Noroeste 31 Noroeste 0 -- -- 56
2020-07-31 01:00:00 24.7 15 Noroeste 27 Noroeste 0 -- -- 51
2020-07-31 00:00:00 25.5 17 Noroeste 34 Noroeste 0 -- -- 49
2020-07-30 23:00:00 26.4 21 Noroeste 29 Noroeste 0 -- -- 46
2020-07-30 22:00:00 28 19 Noroeste 27 Noroeste 0 -- -- 42
2020-07-30 21:00:00 29.6 5 Este 19 Nordeste 0 -- -- 38
2020-07-30 20:00:00 31.8 11 Sudeste 28 Sur 0 -- -- 31
2020-07-30 19:00:00 34.3 13 Sur 31 Sur 0 -- -- 25
2020-07-30 18:00:00 35.3 6 Oeste 23 Sudoeste 0 -- -- 24
2020-07-30 17:00:00 35.1 13 Sur 23 Sur 0 -- -- 23
2020-07-30 16:00:00 35.3 9 Sur 26 Sur 0 -- -- 26
2020-07-30 15:00:00 35.1 6 Sur 23 Sudoeste 0 -- -- 24
2020-07-30 14:00:00 34.1 12 Sur 22 Sur 0 -- -- 26
2020-07-30 13:00:00 32.5 7 Sur 18 Sudoeste 0 -- -- 31
2020-07-30 12:00:00 29.8 4 Nordeste 18 Noroeste 0 -- -- 41
2020-07-30 11:00:00 25.6 12 Noroeste 32 Noroeste 0 -- -- 50
2020-07-30 10:00:00 22.3 28 Noroeste 40 Noroeste 0 -- -- 58
2020-07-30 09:00:00 20.5 31 Noroeste 41 Noroeste 0 -- -- 65
2020-07-30 08:00:00 19.6 26 Noroeste 43 Noroeste 0 -- -- 68
2020-07-30 07:00:00 19.4 27 Noroeste 41 Noroeste 0 -- -- 69
2020-07-30 06:00:00 19.8 32 Noroeste 46 Noroeste 0 -- -- 67
2020-07-30 05:00:00 20.2 34 Noroeste 44 Noroeste 0 -- -- 64
2020-07-30 04:00:00 20.3 33 Noroeste 43 Noroeste 0 -- -- 65
2020-07-30 03:00:00 21.1 30 Noroeste 41 Noroeste 0 -- -- 62
2020-07-30 02:00:00 21.9 28 Noroeste 36 Noroeste 0 -- -- 60
2020-07-30 01:00:00 22.9 28 Noroeste 36 Noroeste 0 -- -- 56
2020-07-30 00:00:00 23.9 21 Noroeste 30 Noroeste 0 -- -- 54
2020-07-29 23:00:00 25.1 18 Noroeste 27 Noroeste 0 -- -- 51
2020-07-29 22:00:00 27 10 Noroeste 15 Noroeste 0 -- -- 44
2020-07-29 21:00:00 28.7 6 Este 18 Sudoeste 0 -- -- 41
2020-07-29 20:00:00 30.9 9 Sudoeste 16 Sur 0 -- -- 32
2020-07-29 19:00:00 32.3 7 Sur 20 Sur 0 -- -- 30
2020-07-29 18:00:00 33 10 Sur 20 Sur 0 -- -- 31
2020-07-29 17:00:00 33.3 9 Sur 21 Sudoeste 0 -- -- 30
2020-07-29 16:00:00 33 5 Noroeste 23 Sudoeste 0 -- -- 28
2020-07-29 15:00:00 32.9 13 Sur 24 Sudoeste 0 -- -- 28
2020-07-29 14:00:00 31.9 8 Sur 21 Sur 0 -- -- 35
2020-07-29 13:00:00 30.9 9 Sur 15 Sudoeste 0 -- -- 32
2020-07-29 12:00:00 27.2 5 Norte 14 Noroeste 0 -- -- 45
2020-07-29 11:00:00 24.5 9 Noroeste 30 Noroeste 0 -- -- 47
2020-07-29 10:00:00 21.6 23 Noroeste 43 Noroeste 0 -- -- 55
2020-07-29 09:00:00 19.1 30 Noroeste 48 Noroeste 0 -- -- 63
2020-07-29 08:00:00 17.3 35 Noroeste 48 Noroeste 0 -- -- 71
2020-07-29 07:00:00 17.6 36 Noroeste 48 Noroeste 0 -- -- 70
2020-07-29 06:00:00 18 35 Noroeste 48 Noroeste 0 -- -- 70
2020-07-29 05:00:00 18.6 36 Noroeste 46 Noroeste 0 -- -- 67
2020-07-29 04:00:00 19.3 35 Noroeste 45 Noroeste 0 -- -- 66
2020-07-29 03:00:00 20.7 31 Noroeste 46 Noroeste 0 -- -- 60
2020-07-29 02:00:00 21.4 31 Noroeste 40 Noroeste 0 -- -- 59
2020-07-29 01:00:00 23 26 Noroeste 35 Noroeste 0 -- -- 55
2020-07-29 00:00:00 23.8 22 Noroeste 31 Noroeste 0 -- -- 53
2020-07-28 23:00:00 25.8 19 Noroeste 27 Noroeste 0 -- -- 46
2020-07-28 22:00:00 28.1 8 Noroeste 15 Nordeste 0 -- -- 40
2020-07-28 21:00:00 29.7 5 Sur 10 Nordeste 0 -- -- 35
2020-07-28 20:00:00 31.2 5 Norte 20 Sur 0 -- -- 31
2020-07-28 19:00:00 32.8 13 Sur 23 Sur 0 -- -- 29
2020-07-28 18:00:00 33.5 18 Sur 27 Sudoeste 0 -- -- 27
2020-07-28 17:00:00 33.8 18 Sur 31 Sur 0 -- -- 27
2020-07-28 16:00:00 33.8 12 Sudeste 33 Sur 0 -- -- 29
2020-07-28 15:00:00 33 15 Sur 32 Sur 0 -- -- 31
2020-07-28 14:00:00 33.1 14 Sur 26 Sur 0 -- -- 30
2020-07-28 13:00:00 32.4 13 Sur 27 Sur 0 -- -- 28
2020-07-28 12:00:00 31.9 8 Sudeste 11 Sudeste 0 -- -- 39
2020-07-28 11:00:00 26.3 11 Noroeste 27 Noroeste 0 -- -- 53
2020-07-28 10:00:00 23.2 23 Noroeste 37 Noroeste 0 -- -- 62
2020-07-28 09:00:00 21.1 28 Noroeste 45 Noroeste 0 -- -- 68
2020-07-28 08:00:00 20.3 29 Noroeste 49 Noroeste 0 -- -- 71
2020-07-28 07:00:00 20.4 32 Noroeste 45 Noroeste 0 -- -- 72
2020-07-28 06:00:00 21.5 28 Noroeste 46 Noroeste 0 -- -- 67
2020-07-28 05:00:00 22.9 28 Norte 45 Noroeste 0 -- -- 60
2020-07-28 04:00:00 23.5 27 Noroeste 45 Norte 0 -- -- 59
2020-07-28 03:00:00 25 24 Norte 40 Noroeste 0 -- -- 52
2020-07-28 02:00:00 27.5 21 Norte 41 Nordeste 0 -- -- 44
2020-07-28 01:00:00 28 11 Norte 41 Noroeste 0 -- -- 44
2020-07-28 00:00:00 27.2 21 Noroeste 35 Noroeste 0 -- -- 50
2020-07-27 23:00:00 27.5 10 Norte 23 Noroeste 0 -- -- 50
2020-07-27 22:00:00 29.6 2 Sudeste 15 Sudoeste 0 -- -- 43
2020-07-27 21:00:00 31.3 4 Sudeste 17 Sudoeste 0 -- -- 41
2020-07-27 20:00:00 33.1 3 Sudoeste 14 Sudoeste 0 -- -- 35
2020-07-27 19:00:00 34.9 11 Sur 18 Sudoeste 0 -- -- 32
2020-07-27 18:00:00 35.1 15 Sur 22 Sudoeste 0 -- -- 33
2020-07-27 17:00:00 34.9 11 Sur 32 Sur 0 -- -- 34
2020-07-27 16:00:00 34.9 7 Sur 22 Sur 0 -- -- 31
2020-07-27 15:00:00 34.5 10 Sur 18 Sur 0 -- -- 32
2020-07-27 14:00:00 33.5 9 Sur 20 Sur 0 -- -- 33
2020-07-27 13:00:00 32 7 Sur 15 Sur 0 -- -- 43
2020-07-27 12:00:00 30.5 7 Sudeste 14 Noroeste 0 -- -- 48
2020-07-27 09:00:00 -- -- -- -- -- -- -- -- --
2020-07-27 08:00:00 18.7 31 Noroeste 45 Noroeste 0 -- -- 75
2020-07-27 07:00:00 18.4 32 Noroeste 44 Noroeste 0 -- -- 77
2020-07-27 06:00:00 18.8 33 Noroeste 42 Noroeste 0 -- -- 75
2020-07-27 05:00:00 19.2 30 Noroeste 44 Noroeste 0 -- -- 75
2020-07-27 04:00:00 19.9 30 Noroeste 47 Noroeste 0 -- -- 72
2020-07-27 03:00:00 20.3 28 Noroeste 36 Noroeste 0 -- -- 72
2020-07-27 02:00:00 21.1 24 Noroeste 32 Noroeste 0 -- -- 69
2020-07-27 01:00:00 22 22 Noroeste 30 Noroeste 0 -- -- 66
2020-07-27 00:00:00 23.4 15 Noroeste 30 Noroeste 0 -- -- 62
2020-07-26 23:00:00 24.8 14 Noroeste 21 Noroeste 0 -- -- 56
2020-07-26 22:00:00 26.6 6 Oeste 10 Noroeste 0 -- -- 51
2020-07-26 21:00:00 28.3 6 Este 10 Este 0 -- -- 46
2020-07-26 20:00:00 29.7 4 Sur 18 Sur 0 -- -- 40
2020-07-26 19:00:00 32 7 Sudoeste 19 Sur 0 -- -- 35
2020-07-26 18:00:00 32 8 Sur 24 Sur 0 -- -- 33
2020-07-26 17:00:00 32.1 8 Sur 24 Sudoeste 0 -- -- 34
2020-07-26 16:00:00 31.7 9 Sudeste 25 Sur 0 -- -- 40
2020-07-26 15:00:00 31 10 Sur 25 Sur 0 -- -- 37
2020-07-26 14:00:00 30.8 7 Sur 19 Sur 0 -- -- 38
2020-07-26 13:00:00 30 8 Sur 17 Sur 0 -- -- 41
2020-07-26 12:00:00 29.1 5 Sudeste 11 Sur 0 -- -- 44
2020-07-26 11:00:00 23.7 9 Noroeste 30 Noroeste 0 -- -- 53
2020-07-26 10:00:00 20.4 19 Noroeste 35 Noroeste 0 -- -- 62
2020-07-26 09:00:00 18.1 28 Noroeste 42 Noroeste 0 -- -- 69
2020-07-26 08:00:00 16.2 30 Noroeste 43 Noroeste 0 -- -- 76
2020-07-26 07:00:00 16.4 33 Noroeste 50 Noroeste 0 -- -- 76
2020-07-26 06:00:00 17.2 30 Noroeste 45 Noroeste 0 -- -- 72
2020-07-26 05:00:00 17.9 31 Noroeste 51 Noroeste 0 -- -- 69
2020-07-26 04:00:00 17.9 32 Noroeste 42 Noroeste 0 -- -- 71
2020-07-26 03:00:00 18.7 27 Noroeste 41 Noroeste 0 -- -- 68
2020-07-26 02:00:00 19.6 23 Noroeste 36 Noroeste 0 -- -- 65
2020-07-26 01:00:00 20.7 23 Noroeste 36 Noroeste 0 -- -- 60
2020-07-26 00:00:00 21.3 23 Noroeste 33 Noroeste 0 -- -- 59
2020-07-25 23:00:00 23.2 15 Noroeste 29 Noroeste 0 -- -- 52
2020-07-25 22:00:00 24.5 19 Noroeste 25 Noroeste 0 -- -- 48
2020-07-25 21:00:00 26 5 Sudeste 10 Este 0 -- -- 44
2020-07-25 20:00:00 27.5 5 Sudeste 16 Sudoeste 0 -- -- 37
2020-07-25 19:00:00 29.2 12 Sur 24 Sur 0 -- -- 34
2020-07-25 18:00:00 29.7 14 Sur 26 Sudoeste 0 -- -- 32
2020-07-25 17:00:00 29.9 10 Sur 29 Sur 0 -- -- 33
2020-07-25 16:00:00 29.8 13 Sur 26 Sur 0 -- -- 36
2020-07-25 15:00:00 29.1 11 Sur 27 Sur 0 -- -- 37
2020-07-25 14:00:00 28.6 11 Sur 26 Sur 0 -- -- 43
2020-07-25 13:00:00 27.7 4 Sur 17 Sur 0 -- -- 46
2020-07-25 12:00:00 26.5 8 Sur 15 Sur 0 -- -- 49
2020-07-25 11:00:00 24.9 7 Sudeste 15 Noroeste 0 -- -- 56
2020-07-25 10:00:00 19.8 9 Norte 27 Noroeste 0 -- -- 67
2020-07-25 09:00:00 17.2 22 Noroeste 37 Noroeste 0 -- -- 76
2020-07-25 08:00:00 15.6 26 Noroeste 40 Noroeste 0 -- -- 82
2020-07-25 07:00:00 15.6 28 Noroeste 37 Noroeste 0 -- -- 83
2020-07-25 06:00:00 16.1 29 Noroeste 37 Noroeste 0 -- -- 82
2020-07-25 05:00:00 16.6 26 Noroeste 34 Noroeste 0 -- -- 80
2020-07-25 04:00:00 17.1 26 Noroeste 35 Noroeste 0 -- -- 79
2020-07-25 03:00:00 18 23 Noroeste 36 Noroeste 0 -- -- 75
2020-07-25 02:00:00 18.7 22 Noroeste 31 Noroeste 0 -- -- 73
2020-07-25 01:00:00 20 21 Noroeste 29 Noroeste 0 -- -- 68
2020-07-25 00:00:00 21.2 22 Noroeste 31 Noroeste 0 -- -- 63
2020-07-24 23:00:00 22.5 15 Noroeste 22 Noroeste 0 -- -- 58
2020-07-24 22:00:00 24.1 12 Noroeste 17 Noroeste 0 -- -- 52
2020-07-24 21:00:00 25.3 7 Este 16 Sur 0 -- -- 48
2020-07-24 20:00:00 26.3 6 Sudeste 16 Sur 0 -- -- 44
2020-07-24 19:00:00 28.4 13 Sur 22 Sur 0 -- -- 44
2020-07-24 18:00:00 29 10 Sur 20 Sur 0 -- -- 42
2020-07-24 17:00:00 29 8 Sur 21 Sur 0 -- -- 39
2020-07-24 16:00:00 29.1 11 Sur 24 Sur 0 -- -- 36
2020-07-24 15:00:00 28.7 13 Sur 25 Sudoeste 0 -- -- 42
2020-07-24 14:00:00 27.9 11 Sur 24 Sudoeste 0 -- -- 45
2020-07-24 13:00:00 26.6 12 Sur 19 Sur 0 -- -- 55
2020-07-24 12:00:00 25.3 8 Sur 16 Sur 0 -- -- 56
2020-07-24 11:00:00 22.5 7 Sur 16 Sur 0.2 -- -- 68
2020-07-24 10:00:00 20.7 5 Sudeste 31 Noroeste 0.4 -- -- 78
2020-07-24 09:00:00 19.2 20 Noroeste 35 Noroeste 0 -- -- 77
2020-07-24 08:00:00 18.2 21 Noroeste 38 Noroeste 0 -- -- 80
2020-07-24 07:00:00 17.9 21 Noroeste 40 Noroeste 0 -- -- 82
2020-07-24 06:00:00 18.1 21 Norte 40 Noroeste 0.2 -- -- 81
2020-07-24 05:00:00 18.3 13 Sudeste 35 Noroeste 3.4 -- -- 80
2020-07-24 04:00:00 19.7 23 Noroeste 36 Noroeste 0 -- -- 63
2020-07-24 03:00:00 20.1 24 Noroeste 35 Noroeste 0 -- -- 62
2020-07-24 02:00:00 21 13 Noroeste 29 Noroeste 0 -- -- 61
2020-07-24 01:00:00 22 12 Noroeste 28 Noroeste 0 -- -- 55
2020-07-24 00:00:00 23 19 Noroeste 27 Noroeste 0 -- -- 52
2020-07-23 23:00:00 24.1 16 Noroeste 24 Noroeste 0 -- -- 47
2020-07-23 22:00:00 25.8 12 Noroeste 17 Noroeste 0 -- -- 42
2020-07-23 21:00:00 27.6 5 Este 11 Sudoeste 0 -- -- 37
2020-07-23 20:00:00 29.2 3 Este 16 Sudoeste 0 -- -- 31
2020-07-23 19:00:00 31.3 9 Sur 22 Sur 0 -- -- 29
2020-07-23 18:00:00 31.6 11 Sudoeste 21 Sur 0 -- -- 26
2020-07-23 17:00:00 31.9 7 Sur 22 Sur 0 -- -- 29
2020-07-23 16:00:00 32.4 12 Sur 32 Sur 0 -- -- 28
2020-07-23 15:00:00 32 17 Sur 25 Sur 0 -- -- 28
2020-07-23 14:00:00 31.5 13 Sur 22 Sur 0 -- -- 32
2020-07-23 13:00:00 30.4 10 Sur 18 Sudoeste 0 -- -- 31
2020-07-23 12:00:00 29 8 Sur 14 Sur 0 -- -- 38
2020-07-23 11:00:00 25.6 4 Norte 26 Noroeste 0 -- -- 47
2020-07-23 10:00:00 21.7 19 Noroeste 36 Noroeste 0 -- -- 57
2020-07-23 09:00:00 19.5 23 Noroeste 36 Noroeste 0 -- -- 62
2020-07-23 08:00:00 18 26 Noroeste 41 Noroeste 0 -- -- 67
2020-07-23 07:00:00 17.7 28 Noroeste 41 Noroeste 0 -- -- 67
2020-07-23 06:00:00 17.8 22 Noroeste 51 Noroeste 0 -- -- 67
2020-07-23 05:00:00 18.2 31 Noroeste 44 Noroeste 0 -- -- 65
2020-07-23 04:00:00 18.8 32 Noroeste 43 Noroeste 0 -- -- 63
2020-07-23 03:00:00 19.4 29 Noroeste 39 Noroeste 0 -- -- 60
2020-07-23 02:00:00 20.1 24 Noroeste 38 Noroeste 0 -- -- 57
2020-07-23 01:00:00 21.2 28 Noroeste 36 Noroeste 0 -- -- 53
2020-07-23 00:00:00 22.2 24 Noroeste 34 Noroeste 0 -- -- 50
2020-07-22 23:00:00 23.7 20 Noroeste 32 Noroeste 0 -- -- 44
2020-07-22 22:00:00 24.9 8 Noroeste 17 Noroeste 0 -- -- 43
2020-07-22 21:00:00 26.2 3 Sudeste 14 Este 0 -- -- 36
2020-07-22 20:00:00 27.8 5 Sudeste 16 Sur 0 -- -- 34
2020-07-22 19:00:00 29.4 6 Sudeste 23 Sur 0 -- -- 30
2020-07-22 18:00:00 32.2 7 Sudeste 17 Sur 0 -- -- 27
2020-07-22 17:00:00 31.9 5 Sudeste 21 Sur 0 -- -- 29
2020-07-22 16:00:00 32.1 10 Sur 21 Sur 0 -- -- 27
2020-07-22 15:00:00 30.9 8 Sur 17 Sur 0 -- -- 32
2020-07-22 14:00:00 30.5 8 Sur 18 Sur 0 -- -- 32
2020-07-22 13:00:00 30.1 9 Sur 23 Sur 0 -- -- 34
2020-07-22 12:00:00 28.8 6 Sudeste 19 Sudoeste 0 -- -- 44
2020-07-22 11:00:00 25.2 5 Noroeste 23 Noroeste 0 -- -- 56
2020-07-22 10:00:00 23.1 17 Noroeste 31 Norte 0 -- -- 62
2020-07-22 09:00:00 21 23 Norte 37 Noroeste 0 -- -- 67
2020-07-22 08:00:00 19.3 24 Noroeste 33 Noroeste 0 -- -- 76
2020-07-22 07:00:00 20 22 Noroeste 40 Noroeste 0 -- -- 71
2020-07-22 06:00:00 20.6 22 Noroeste 41 Noroeste 0 -- -- 69
2020-07-22 05:00:00 20.7 25 Noroeste 37 Noroeste 0 -- -- 70
2020-07-22 04:00:00 21.1 25 Noroeste 37 Noroeste 0 -- -- 68
2020-07-22 03:00:00 21.9 24 Noroeste 33 Noroeste 0 -- -- 64
2020-07-22 02:00:00 22.4 21 Noroeste 28 Noroeste 0 -- -- 62
2020-07-22 01:00:00 22.9 15 Noroeste 27 Noroeste 0 -- -- 62
2020-07-22 00:00:00 24.1 19 Noroeste 28 Noroeste 0 -- -- 56
2020-07-21 23:00:00 25.4 3 Noroeste 21 Noroeste 0 -- -- 51
2020-07-21 22:00:00 26.9 4 Sudoeste 22 Este 0 -- -- 45
2020-07-21 21:00:00 28.2 11 Este 37 Sudoeste 0 -- -- 43
2020-07-21 20:00:00 30.3 14 Sudoeste 32 Sur 0 -- -- 40
2020-07-21 19:00:00 31.9 9 Sudoeste 24 Sudoeste 0 -- -- 33
2020-07-21 18:00:00 32.4 10 Sur 17 Sur 0 -- -- 32
2020-07-21 17:00:00 32.4 9 Sur 20 Sur 0 -- -- 32
2020-07-21 16:00:00 32.2 7 Sudeste 21 Sur 0 -- -- 33
2020-07-21 15:00:00 31.7 7 Sur 19 Sur 0 -- -- 34
2020-07-21 14:00:00 31.4 8 Sudeste 17 Sur 0 -- -- 37
2020-07-21 13:00:00 30 10 Sur 16 Sur 0 -- -- 41
2020-07-21 12:00:00 28 5 Nordeste 24 Noroeste 0 -- -- 47
2020-07-21 11:00:00 23 15 Noroeste 34 Noroeste 0 -- -- 54
2020-07-21 10:00:00 20.5 25 Noroeste 41 Noroeste 0 -- -- 59
2020-07-21 09:00:00 17.8 27 Noroeste 49 Noroeste 0 -- -- 68
2020-07-21 08:00:00 15.9 35 Noroeste 51 Noroeste 0 -- -- 75
2020-07-21 07:00:00 15.7 36 Noroeste 51 Noroeste 0 -- -- 76
2020-07-21 06:00:00 15.9 32 Noroeste 48 Noroeste 0 -- -- 75
2020-07-21 05:00:00 16.2 37 Noroeste 51 Noroeste 0 -- -- 76
2020-07-21 04:00:00 17.4 32 Noroeste 46 Noroeste 0 -- -- 70
2020-07-21 03:00:00 18.3 29 Norte 46 Noroeste 0 -- -- 65
2020-07-21 02:00:00 18.9 30 Noroeste 46 Noroeste 0 -- -- 64
2020-07-21 01:00:00 19.4 25 Noroeste 40 Noroeste 0 -- -- 64
2020-07-21 00:00:00 20.5 25 Noroeste 38 Noroeste 0 -- -- 60
2020-07-20 23:00:00 22.2 21 Noroeste 39 Noroeste 0 -- -- 54
2020-07-20 22:00:00 23.6 17 Norte 33 Noroeste 0 -- -- 48
2020-07-20 21:00:00 25.2 17 Norte 33 Noroeste 0 -- -- 41
2020-07-20 20:00:00 25.3 19 Noroeste 52 Norte 0 -- -- 40
2020-07-20 19:00:00 30.3 5 Oeste 19 Sudoeste 0 -- -- 38
2020-07-20 18:00:00 30.1 11 Sur 23 Sur 0 -- -- 37
2020-07-20 17:00:00 30.6 15 Sur 31 Sur 0 -- -- 39
2020-07-20 16:00:00 30.6 13 Sur 28 Sur 0 -- -- 42
2020-07-20 15:00:00 30.8 12 Sur 23 Sur 0 -- -- 39
2020-07-20 14:00:00 30.2 10 Sur 22 Sudoeste 0 -- -- 35
2020-07-20 13:00:00 28.6 14 Sur 22 Sur 0 -- -- 49
2020-07-20 12:00:00 27.6 7 Sudeste 11 Nordeste 0 -- -- 56
2020-07-20 11:00:00 25.8 5 Sudeste 20 Noroeste 0 -- -- 59
2020-07-20 10:00:00 21.3 12 Noroeste 35 Noroeste 0 -- -- 66
2020-07-20 09:00:00 19.1 29 Noroeste 46 Noroeste 0 -- -- 70
2020-07-20 08:00:00 18.5 30 Noroeste 46 Noroeste 0 -- -- 71
2020-07-20 07:00:00 17.7 35 Noroeste 48 Noroeste 0 -- -- 76
2020-07-20 06:00:00 17.8 35 Noroeste 48 Noroeste 0 -- -- 76
2020-07-20 05:00:00 18.3 33 Noroeste 41 Noroeste 0 -- -- 74
2020-07-20 04:00:00 19 22 Noroeste 36 Noroeste 0 -- -- 72
2020-07-20 03:00:00 19.6 18 Noroeste 38 Noroeste 0 -- -- 70
2020-07-20 02:00:00 20.4 24 Noroeste 36 Noroeste 0 -- -- 65
2020-07-20 01:00:00 21.1 21 Noroeste 35 Noroeste 0 -- -- 65
2020-07-20 00:00:00 22.2 16 Noroeste 28 Noroeste 0 -- -- 60
2020-07-19 23:00:00 23.7 18 Noroeste 25 Noroeste 0 -- -- 54
2020-07-19 22:00:00 25.5 6 Noroeste 13 Noroeste 0 -- -- 50
2020-07-19 21:00:00 27.1 6 Este 12 Sudeste 0 -- -- 43
2020-07-19 20:00:00 29 0 Calma 14 Sur 0 -- -- 39
2020-07-19 19:00:00 30.5 6 Sur 22 Sur 0 -- -- 37
2020-07-19 18:00:00 30.3 6 Sudeste 22 Sur 0 -- -- 39
2020-07-19 17:00:00 31 13 Sur 21 Sudoeste 0 -- -- 38
2020-07-19 16:00:00 31 12 Sur 23 Sur 0 -- -- 34
2020-07-19 15:00:00 30.2 10 Sudeste 21 Sur 0 -- -- 40
2020-07-19 14:00:00 29.1 8 Sudeste 22 Sudoeste 0 -- -- 48
2020-07-19 13:00:00 28.3 10 Sur 21 Sudoeste 0 -- -- 48
2020-07-19 12:00:00 27.5 8 Sudeste 14 Este 0 -- -- 49
2020-07-19 11:00:00 23.5 4 Norte 21 Noroeste 0 -- -- 59
2020-07-19 10:00:00 19.7 15 Noroeste 32 Noroeste 0 -- -- 69
2020-07-19 09:00:00 17 23 Noroeste 35 Noroeste 0 -- -- 77
2020-07-19 08:00:00 15.2 26 Noroeste 40 Noroeste 0 -- -- 84
2020-07-19 07:00:00 15.4 30 Noroeste 40 Noroeste 0 -- -- 83
2020-07-19 06:00:00 15.9 23 Noroeste 36 Noroeste 0 -- -- 82
2020-07-19 05:00:00 16.5 23 Noroeste 35 Noroeste 0 -- -- 80
2020-07-19 04:00:00 17.1 22 Noroeste 36 Noroeste 0 -- -- 79
2020-07-19 03:00:00 17.9 21 Noroeste 31 Norte 0 -- -- 76
2020-07-19 02:00:00 18.9 17 Noroeste 32 Noroeste 0 -- -- 73
2020-07-19 01:00:00 20.4 24 Noroeste 33 Noroeste 0 -- -- 67
2020-07-19 00:00:00 21.3 21 Noroeste 30 Noroeste 0 -- -- 64
2020-07-18 23:00:00 22.7 11 Noroeste 17 Noroeste 0 -- -- 60
2020-07-18 22:00:00 24.7 0 Calma 4 Sudeste 0 -- -- 50
2020-07-18 21:00:00 26.5 2 Sur 16 Sudeste 0 -- -- 44
2020-07-18 20:00:00 27.5 6 Sur 18 Sudoeste 0 -- -- 40
2020-07-18 19:00:00 28.9 14 Sur 23 Sudoeste 0 -- -- 37
2020-07-18 18:00:00 29.6 11 Sur 22 Sur 0 -- -- 37
2020-07-18 17:00:00 29.5 10 Sur 22 Sur 0 -- -- 38
2020-07-18 16:00:00 29.4 14 Sur 25 Nordeste 0 -- -- 38
2020-07-18 15:00:00 28.6 8 Sudeste 20 Sur 0 -- -- 38
2020-07-18 14:00:00 27.9 7 Sudeste 15 Nordeste 0 -- -- 42
2020-07-18 13:00:00 27.6 8 Sudeste 15 Este 0 -- -- 46
2020-07-18 12:00:00 25.7 6 Sudeste 12 Este 0 -- -- 48
2020-07-18 11:00:00 22.5 4 Este 18 Noroeste 0 -- -- 50
2020-07-18 10:00:00 17.6 15 Noroeste 28 Noroeste 0 -- -- 62
2020-07-18 09:00:00 15.2 19 Noroeste 41 Noroeste 0 -- -- 69
2020-07-18 08:00:00 13.6 28 Noroeste 41 Noroeste 0 -- -- 73
2020-07-18 07:00:00 13.5 30 Noroeste 44 Noroeste 0 -- -- 75
2020-07-18 06:00:00 14.3 31 Noroeste 41 Noroeste 0 -- -- 71
2020-07-18 05:00:00 15.2 28 Noroeste 41 Noroeste 0 -- -- 66
2020-07-18 04:00:00 16 30 Noroeste 44 Noroeste 0 -- -- 65
2020-07-18 03:00:00 16.7 31 Noroeste 40 Noroeste 0 -- -- 63
2020-07-18 02:00:00 18.5 22 Noroeste 40 Noroeste 0 -- -- 55
2020-07-18 01:00:00 19.8 19 Norte 37 Noroeste 0 -- -- 49
2020-07-18 00:00:00 20.5 18 Noroeste 34 Noroeste 0 -- -- 50
2020-07-17 23:00:00 21.6 18 Norte 32 Noroeste 0 -- -- 47
2020-07-17 22:00:00 22.9 17 Norte 25 Noroeste 0 -- -- 44
2020-07-17 21:00:00 24.6 10 Noroeste 17 Noroeste 0 -- -- 44
2020-07-17 20:00:00 25.3 10 Sur 17 Sudoeste 0 -- -- 48
2020-07-17 19:00:00 26.9 6 Sudeste 20 Sudoeste 0 -- -- 49
2020-07-17 18:00:00 27.1 10 Sur 19 Sur 0 -- -- 46
2020-07-17 17:00:00 27.3 9 Sudoeste 27 Sur 0 -- -- 48
2020-07-17 16:00:00 27.2 14 Sur 29 Sur 0 -- -- 49
2020-07-17 15:00:00 26.8 17 Sur 28 Sur 0 -- -- 49
2020-07-17 14:00:00 26.6 11 Sur 21 Sur 0 -- -- 52
2020-07-17 13:00:00 26.3 8 Sur 16 Sur 0 -- -- 53
2020-07-17 12:00:00 25 7 Sudeste 13 Sur 0 -- -- 54
2020-07-17 11:00:00 23.8 7 Sudeste 12 Sudeste 0 -- -- 61
2020-07-17 10:00:00 19.1 5 Norte 19 Noroeste 0 -- -- 67
2020-07-17 09:00:00 16.1 15 Noroeste 32 Noroeste 0 -- -- 75
2020-07-17 08:00:00 14.2 21 Noroeste 36 Noroeste 0 -- -- 81
2020-07-17 07:00:00 14.5 24 Noroeste 41 Noroeste 0 -- -- 82
2020-07-17 06:00:00 15.2 26 Noroeste 37 Noroeste 0 -- -- 82
2020-07-17 05:00:00 15.9 24 Noroeste 33 Noroeste 0 -- -- 81
2020-07-17 04:00:00 16.5 23 Noroeste 33 Noroeste 0 -- -- 81
2020-07-17 03:00:00 17.3 22 Noroeste 34 Noroeste 0 -- -- 79
2020-07-17 02:00:00 18.2 24 Noroeste 34 Noroeste 0 -- -- 76
2020-07-17 01:00:00 19.2 16 Noroeste 27 Noroeste 0 -- -- 73
2020-07-17 00:00:00 20.2 16 Noroeste 23 Noroeste 0 -- -- 69
2020-07-16 23:00:00 21.3 10 Noroeste 15 Noroeste 0 -- -- 65
2020-07-16 22:00:00 22.7 4 Noroeste 9 Noroeste 0 -- -- 59
2020-07-16 21:00:00 24 4 Sudeste 12 Sur 0 -- -- 54
2020-07-16 20:00:00 24.9 8 Sur 16 Sur 0 -- -- 50
2020-07-16 19:00:00 26.2 6 Sudeste 19 Sur 0 -- -- 48
2020-07-16 18:00:00 26.8 6 Sudeste 22 Sur 0 -- -- 47
2020-07-16 17:00:00 27 12 Sur 24 Sur 0 -- -- 48
2020-07-16 16:00:00 26.9 16 Sur 28 Sudoeste 0 -- -- 46
2020-07-16 15:00:00 26.8 10 Sur 19 Sur 0 -- -- 49
2020-07-16 14:00:00 25.8 8 Sur 21 Sur 0 -- -- 53
2020-07-16 13:00:00 24.4 11 Sur 19 Sudoeste 0 -- -- 56
2020-07-16 12:00:00 23.6 6 Sudeste 14 Sur 0 -- -- 56
2020-07-16 11:00:00 21.8 8 Sur 12 Sudoeste 0 -- -- 61
2020-07-16 10:00:00 17.6 8 Noroeste 26 Noroeste 0 -- -- 69
2020-07-16 09:00:00 14.8 18 Noroeste 32 Noroeste 0 -- -- 79
2020-07-16 08:00:00 13.2 18 Noroeste 40 Noroeste 0 -- -- 84
2020-07-16 07:00:00 13 27 Noroeste 39 Noroeste 0 -- -- 86
2020-07-16 06:00:00 13.4 24 Noroeste 40 Noroeste 0 -- -- 84
2020-07-16 05:00:00 13.8 31 Noroeste 39 Noroeste 0 -- -- 83
2020-07-16 04:00:00 14.3 25 Noroeste 36 Noroeste 0 -- -- 82
2020-07-16 03:00:00 15 28 Noroeste 42 Noroeste 0 -- -- 78
2020-07-16 02:00:00 15.5 28 Noroeste 41 Noroeste 0 -- -- 76
2020-07-16 01:00:00 16.2 27 Noroeste 40 Noroeste 0 -- -- 73
2020-07-16 00:00:00 17.6 25 Noroeste 42 Noroeste 0 -- -- 65
2020-07-15 23:00:00 18.8 19 Norte 30 Norte 0 -- -- 61
2020-07-15 22:00:00 19.9 18 Norte 29 Norte 0 -- -- 57
2020-07-15 21:00:00 21.1 17 Noroeste 30 Noroeste 0 -- -- 54
2020-07-15 20:00:00 22.3 9 Noroeste 23 Noroeste 0 -- -- 49
2020-07-15 19:00:00 22.7 7 Noroeste 11 Noroeste 0 -- -- 58
2020-07-15 18:00:00 22.1 0 Calma 6 Este 0 -- -- 63
2020-07-15 17:00:00 21.9 3 Sudeste 12 Sudeste 0 -- -- 64
2020-07-15 16:00:00 21.9 5 Sudeste 23 Sudoeste 0 -- -- 61
2020-07-15 15:00:00 23.4 12 Sur 23 Nordeste 0 -- -- 60
2020-07-15 14:00:00 23.6 9 Sudeste 23 Sur 0 -- -- 66
2020-07-15 13:00:00 22.5 9 Sur 20 Sur 0 -- -- 65
2020-07-15 12:00:00 20.9 9 Sur 16 Sur 0 -- -- 70
2020-07-15 11:00:00 18.9 6 Sur 9 Sur 0 -- -- 71
2020-07-15 10:00:00 15.9 8 Noroeste 23 Noroeste 0 -- -- 83
2020-07-15 09:00:00 14.9 15 Noroeste 25 Noroeste 0 -- -- 85
2020-07-15 08:00:00 14.3 17 Noroeste 30 Noroeste 0 -- -- 87
2020-07-15 07:00:00 14.1 17 Noroeste 32 Noroeste 0 -- -- 87
2020-07-15 06:00:00 14.2 20 Norte 28 Norte 0 -- -- 88
2020-07-15 05:00:00 14.4 17 Norte 31 Noroeste 0 -- -- 88
2020-07-15 04:00:00 14.7 16 Noroeste 31 Noroeste 0 -- -- 87
2020-07-15 03:00:00 15.2 22 Noroeste 36 Noroeste 0 -- -- 86
2020-07-15 02:00:00 15.5 26 Norte 36 Norte 0 -- -- 85
2020-07-15 01:00:00 15.5 22 Norte 33 Noroeste 0 -- -- 87
2020-07-15 00:00:00 15.8 24 Noroeste 33 Noroeste 0 -- -- 87